createdAt,value
2018-09-21T00:00:26.143Z,95577.97
2018-09-21T00:02:54.286Z,95576.62
2018-09-21T00:05:22.281Z,95573.66
2018-09-21T00:07:50.473Z,95580.06
2018-09-21T00:10:18.460Z,95576.56
2018-09-21T00:12:46.425Z,95575.81
2018-09-21T00:15:14.763Z,95581.08
2018-09-21T00:17:42.839Z,95577.38
2018-09-21T00:20:10.841Z,95578.72
2018-09-21T00:22:38.897Z,95572.55
2018-09-21T00:25:06.383Z,95574.09
2018-09-21T00:27:34.629Z,95577.29
2018-09-21T00:30:02.653Z,95579.97
2018-09-21T00:32:30.953Z,95579.45
2018-09-21T00:34:59.032Z,95574.28
2018-09-21T00:37:27.105Z,95573.17
2018-09-21T00:39:56.170Z,95573.47
2018-09-21T00:42:24.458Z,95570.49
2018-09-21T00:44:52.429Z,95567.81
2018-09-21T00:47:20.534Z,95569.88
2018-09-21T00:49:48.531Z,95570.70
2018-09-21T00:52:16.596Z,95575.23
2018-09-21T00:54:45.007Z,95577.92
2018-09-21T00:57:13.086Z,95575.47
2018-09-21T00:59:41.211Z,95577.63
2018-09-21T01:02:09.300Z,95573.28
2018-09-21T01:04:42.681Z,95568.97
2018-09-21T01:07:11.423Z,95574.85
2018-09-21T01:09:39.553Z,95571.88
2018-09-21T01:12:07.653Z,95569.69
2018-09-21T01:14:35.709Z,95570.02
2018-09-21T01:17:03.760Z,95575.05
2018-09-21T01:19:31.831Z,95576.92
2018-09-21T01:21:59.923Z,95572.08
2018-09-21T01:24:28.005Z,95577.97
2018-09-21T01:26:56.037Z,95574.47
2018-09-21T01:29:24.064Z,95574.14
2018-09-21T01:31:52.272Z,95583.52
2018-09-21T01:34:20.642Z,95577.34
2018-09-21T01:36:49.858Z,95580.25
2018-09-21T01:39:17.910Z,95582.31
2018-09-21T01:41:45.801Z,95574.80
2018-09-21T01:44:13.741Z,95575.09
2018-09-21T01:46:41.835Z,95580.16
2018-09-21T01:49:11.052Z,95573.66
2018-09-21T01:51:39.045Z,95579.02
2018-09-21T01:54:07.119Z,95580.69
2018-09-21T01:56:35.351Z,95576.05
2018-09-21T01:59:03.320Z,95567.48
2018-09-21T02:01:31.391Z,95572.03
2018-09-21T02:03:59.376Z,95569.64
2018-09-21T02:06:27.489Z,95566.34
2018-09-21T02:08:55.583Z,95567.39
2018-09-21T02:11:23.648Z,95559.05
2018-09-21T02:13:51.737Z,95564.09
2018-09-21T02:16:19.819Z,95561.73
2018-09-21T02:18:48.016Z,95556.58
2018-09-21T02:21:16.437Z,95561.73
2018-09-21T02:23:44.504Z,95560.06
2018-09-21T02:26:12.526Z,95565.14
2018-09-21T02:28:40.474Z,95569.16
2018-09-21T02:31:08.471Z,95566.18
2018-09-21T02:33:36.884Z,95561.84
2018-09-21T02:36:04.950Z,95563.80
2018-09-21T02:38:32.939Z,95567.20
2018-09-21T02:41:01.026Z,95564.84
2018-09-21T02:43:29.021Z,95565.04
2018-09-21T02:45:57.100Z,95570.63
2018-09-21T02:48:25.239Z,95562.06
2018-09-21T02:50:54.142Z,95568.15
2018-09-21T02:53:22.698Z,95564.13
2018-09-21T02:55:50.703Z,95569.69
2018-09-21T02:58:18.795Z,95564.66
2018-09-21T03:00:46.972Z,95567.00
2018-09-21T03:03:15.190Z,95572.88
2018-09-21T03:05:43.177Z,95572.88
2018-09-21T03:08:11.341Z,95572.69
2018-09-21T03:10:39.374Z,95574.23
2018-09-21T03:13:07.534Z,95569.91
2018-09-21T03:15:36.140Z,95576.91
2018-09-21T03:18:04.101Z,95577.13
2018-09-21T03:20:32.201Z,95575.27
2018-09-21T03:23:00.282Z,95583.83
2018-09-21T03:25:28.489Z,95581.25
2018-09-21T03:27:57.899Z,95577.00
2018-09-21T03:30:26.000Z,95578.66
2018-09-21T03:32:54.093Z,95579.69
2018-09-21T03:35:22.195Z,95584.45
2018-09-21T03:37:50.153Z,95580.34
2018-09-21T03:40:18.183Z,95584.06
2018-09-21T03:42:46.260Z,95588.83
2018-09-21T03:45:14.330Z,95584.38
2018-09-21T03:47:42.422Z,95582.78
2018-09-21T03:50:10.489Z,95577.81
2018-09-21T03:52:38.641Z,95581.66
2018-09-21T03:55:07.499Z,95576.39
2018-09-21T03:57:35.588Z,95579.47
2018-09-21T04:00:03.987Z,95586.39
2018-09-21T04:02:32.083Z,95585.57
2018-09-21T04:05:01.820Z,95585.45
2018-09-21T04:07:29.996Z,95586.91
2018-09-21T04:09:59.323Z,95562.02
2018-09-21T04:12:27.407Z,95581.05
2018-09-21T04:14:55.501Z,95588.87
2018-09-21T04:17:23.788Z,95587.13
2018-09-21T04:19:51.885Z,95581.66
2018-09-21T04:22:19.976Z,95586.27
2018-09-21T04:24:48.066Z,95582.03
2018-09-21T04:27:16.138Z,95583.89
2018-09-21T04:29:44.460Z,95586.38
2018-09-21T04:32:12.528Z,95584.19
2018-09-21T04:34:40.513Z,95586.67
2018-09-21T04:37:08.491Z,95589.16
2018-09-21T04:39:36.935Z,95596.05
2018-09-21T04:42:04.982Z,95593.36
2018-09-21T04:44:33.471Z,95597.38
2018-09-21T04:47:01.421Z,95599.02
2018-09-21T04:49:29.357Z,95595.00
2018-09-21T04:51:57.241Z,95596.95
2018-09-21T04:54:25.324Z,95602.61
2018-09-21T04:56:53.431Z,95602.84
2018-09-21T04:59:21.532Z,95607.67
2018-09-21T05:01:49.599Z,95607.97
2018-09-21T05:04:17.690Z,95607.25
2018-09-21T05:06:45.772Z,95604.27
2018-09-21T05:09:13.874Z,95606.23
2018-09-21T05:11:43.735Z,95602.94
2018-09-21T05:14:11.968Z,95606.14
2018-09-21T05:16:39.959Z,95609.73
2018-09-21T05:19:08.068Z,95606.53
2018-09-21T05:21:36.494Z,95601.27
2018-09-21T05:24:05.233Z,95603.01
2018-09-21T05:26:33.461Z,95598.05
2018-09-21T05:29:01.568Z,95600.20
2018-09-21T05:31:30.246Z,95595.47
2018-09-21T05:33:58.365Z,95596.41
2018-09-21T05:36:26.752Z,95593.31
2018-09-21T05:38:54.717Z,95599.52
2018-09-21T05:41:22.694Z,95600.63
2018-09-21T05:43:50.715Z,95600.43
2018-09-21T05:46:18.699Z,95598.05
2018-09-21T05:48:48.195Z,95601.55
2018-09-21T05:51:16.396Z,95596.48
2018-09-21T05:53:45.212Z,95598.14
2018-09-21T05:56:13.202Z,95594.74
2018-09-21T05:58:41.193Z,95600.92
2018-09-21T06:01:09.238Z,95600.39
2018-09-21T06:03:38.166Z,95598.02
2018-09-21T06:06:06.778Z,95603.99
2018-09-21T06:08:34.774Z,95601.93
2018-09-21T06:11:02.737Z,95598.20
2018-09-21T06:13:31.347Z,95601.18
2018-09-21T06:15:59.441Z,95593.47
2018-09-21T06:18:27.629Z,95593.76
2018-09-21T06:20:55.646Z,95592.75
2018-09-21T06:23:23.714Z,95599.45
2018-09-21T06:25:51.850Z,95599.22
2018-09-21T06:28:19.903Z,95602.71
2018-09-21T06:30:48.092Z,95608.39
2018-09-21T06:33:16.175Z,95603.33
2018-09-21T06:35:44.264Z,95597.97
2018-09-21T06:38:12.608Z,95599.60
2018-09-21T06:40:40.651Z,95596.92
2018-09-21T06:43:08.751Z,95598.59
2018-09-21T06:45:36.726Z,95594.86
2018-09-21T06:48:04.818Z,95598.36
2018-09-21T06:50:33.136Z,95596.82
2018-09-21T06:53:01.213Z,95599.17
2018-09-21T06:55:29.178Z,95601.66
2018-09-21T06:57:57.177Z,95598.16
2018-09-21T07:00:25.161Z,95598.16
2018-09-21T07:02:54.186Z,95600.31
2018-09-21T07:05:22.279Z,95597.73
2018-09-21T07:07:50.299Z,95601.23
2018-09-21T07:10:18.464Z,95603.38
2018-09-21T07:12:46.488Z,95602.38
2018-09-21T07:15:14.628Z,95601.03
2018-09-21T07:17:42.965Z,95606.69
2018-09-21T07:20:11.007Z,95606.69
2018-09-21T07:22:38.978Z,95594.63
2018-09-21T07:25:07.054Z,95600.27
2018-09-21T07:27:35.181Z,95600.80
2018-09-21T07:30:03.265Z,95597.92
2018-09-21T07:32:31.331Z,95597.92
2018-09-21T07:34:59.463Z,95602.76
2018-09-21T07:37:28.534Z,95603.58
2018-09-21T07:39:56.637Z,95597.69
2018-09-21T07:42:24.833Z,95592.33
2018-09-21T07:44:52.832Z,95603.37
2018-09-21T07:47:20.813Z,95591.80
2018-09-21T07:49:49.921Z,95586.77
2018-09-21T07:52:18.011Z,95592.42
2018-09-21T07:54:46.097Z,95585.72
2018-09-21T07:57:14.172Z,95585.20
2018-09-21T07:59:42.289Z,95585.52
2018-09-21T08:02:10.395Z,95585.52
2018-09-21T08:04:38.655Z,95575.29
2018-09-21T08:07:06.785Z,95582.31
2018-09-21T08:09:34.860Z,95536.86
2018-09-21T08:12:02.833Z,95577.77
2018-09-21T08:14:30.821Z,95582.41
2018-09-21T08:16:58.810Z,95573.55
2018-09-21T08:19:27.371Z,95572.50
2018-09-21T08:21:55.296Z,95575.19
2018-09-21T08:24:23.383Z,95576.52
2018-09-21T08:26:51.559Z,95578.68
2018-09-21T08:29:19.761Z,95576.81
2018-09-21T08:31:48.168Z,95574.45
2018-09-21T08:34:16.245Z,95574.45
2018-09-21T08:36:44.334Z,95570.73
2018-09-21T08:39:12.836Z,95569.39
2018-09-21T08:41:41.462Z,95568.05
2018-09-21T08:44:09.861Z,95563.50
2018-09-21T08:46:38.129Z,95562.69
2018-09-21T08:49:06.272Z,95560.00
2018-09-21T08:51:34.306Z,95558.95
2018-09-21T08:54:02.407Z,95553.59
2018-09-21T08:56:30.597Z,95552.25
2018-09-21T08:58:58.783Z,95550.91
2018-09-21T09:01:29.991Z,95548.23
2018-09-21T09:03:58.131Z,95546.36
2018-09-21T09:06:26.217Z,95545.87
2018-09-21T09:08:54.320Z,95543.19
2018-09-21T09:11:22.393Z,95542.66
2018-09-21T09:13:52.166Z,95541.33
2018-09-21T09:16:20.319Z,95532.47
2018-09-21T09:18:48.424Z,95532.23
2018-09-21T09:21:16.486Z,95531.41
2018-09-21T09:23:44.592Z,95534.09
2018-09-21T09:26:13.000Z,95531.41
2018-09-21T09:28:40.951Z,95526.34
2018-09-21T09:31:09.061Z,95523.66
2018-09-21T09:33:37.150Z,95519.96
2018-09-21T09:36:05.134Z,95520.48
2018-09-21T09:38:33.370Z,95518.63
2018-09-21T09:41:02.133Z,95518.09
2018-09-21T09:43:30.274Z,95520.48
2018-09-21T09:45:58.521Z,95516.14
2018-09-21T09:48:26.632Z,95511.11
2018-09-21T09:50:54.689Z,95511.59
2018-09-21T09:53:22.796Z,95517.28
2018-09-21T09:55:51.515Z,95515.94
2018-09-21T09:58:19.887Z,95508.91
2018-09-21T10:00:51.849Z,95507.38
2018-09-21T10:03:20.322Z,95513.55
2018-09-21T10:05:48.349Z,95508.19
2018-09-21T10:08:19.230Z,95510.05
2018-09-21T10:10:47.625Z,95509.53
2018-09-21T10:13:15.695Z,95505.51
2018-09-21T10:15:43.782Z,95498.52
2018-09-21T10:18:11.854Z,95504.16
2018-09-21T10:20:41.688Z,95500.14
2018-09-21T10:23:09.795Z,95504.98
2018-09-21T10:25:37.874Z,95498.80
2018-09-21T10:28:06.167Z,95500.44
2018-09-21T10:30:34.157Z,95492.09
2018-09-21T10:33:02.769Z,95495.07
2018-09-21T10:35:30.813Z,95483.23
2018-09-21T10:37:58.821Z,95486.21
2018-09-21T10:40:26.961Z,95482.19
2018-09-21T10:42:55.528Z,95481.66
2018-09-21T10:45:23.614Z,95477.64
2018-09-21T10:47:51.965Z,95481.66
2018-09-21T10:50:21.539Z,95473.62
2018-09-21T10:52:49.757Z,95469.59
2018-09-21T10:55:17.835Z,95459.39
2018-09-21T10:57:45.896Z,95456.19
2018-09-21T11:00:13.996Z,95453.02
2018-09-21T11:02:42.112Z,95452.48
2018-09-21T11:05:10.170Z,95449.48
2018-09-21T11:07:38.161Z,95445.47
2018-09-21T11:10:06.253Z,95449.28
2018-09-21T11:12:34.343Z,95452.48
2018-09-21T11:15:02.429Z,95451.44
2018-09-21T11:17:30.457Z,95441.77
2018-09-21T11:19:59.646Z,95436.40
2018-09-21T11:22:28.051Z,95435.87
2018-09-21T11:24:56.044Z,95430.72
2018-09-21T11:27:24.238Z,95431.03
2018-09-21T11:29:52.186Z,95432.91
2018-09-21T11:32:21.015Z,95427.83
2018-09-21T11:34:48.986Z,95414.69
2018-09-21T11:37:16.979Z,95425.97
2018-09-21T11:39:45.046Z,95421.65
2018-09-21T11:42:13.657Z,95422.47
2018-09-21T11:44:41.991Z,95423.28
2018-09-21T11:47:10.125Z,95419.78
2018-09-21T11:49:38.250Z,95422.27
2018-09-21T11:52:06.340Z,95417.39
2018-09-21T11:54:34.528Z,95420.08
2018-09-21T11:57:05.645Z,95408.01
2018-09-21T11:59:33.665Z,95414.71
2018-09-21T12:02:01.963Z,95413.37
2018-09-21T12:04:30.290Z,95415.56
2018-09-21T12:06:58.338Z,95414.71
2018-09-21T12:09:26.457Z,95417.92
2018-09-21T12:11:54.521Z,95415.56
2018-09-21T12:14:22.618Z,95420.92
2018-09-21T12:16:50.709Z,95418.45
2018-09-21T12:19:18.894Z,95411.53
2018-09-21T12:21:46.990Z,95410.11
2018-09-21T12:24:15.173Z,95408.33
2018-09-21T12:26:43.574Z,95402.64
2018-09-21T12:29:11.690Z,95405.65
2018-09-21T12:31:39.660Z,95401.83
2018-09-21T12:34:07.848Z,95400.81
2018-09-21T12:36:35.941Z,95402.15
2018-09-21T12:39:06.649Z,95402.15
2018-09-21T12:41:34.775Z,95399.76
2018-09-21T12:44:02.886Z,95399.47
2018-09-21T12:46:30.950Z,95397.28
2018-09-21T12:49:00.892Z,95392.23
2018-09-21T12:51:28.965Z,95364.92
2018-09-21T12:53:57.072Z,95391.42
2018-09-21T12:56:26.024Z,95388.22
2018-09-21T12:58:54.149Z,95393.58
2018-09-21T13:01:22.465Z,95390.37
2018-09-21T13:03:50.738Z,95387.41
2018-09-21T13:06:19.222Z,95390.37
2018-09-21T13:08:47.654Z,95386.34
2018-09-21T13:11:15.569Z,95387.41
2018-09-21T13:13:43.610Z,95392.23
2018-09-21T13:16:11.807Z,95391.71
2018-09-21T13:18:40.020Z,95391.42
2018-09-21T13:21:08.712Z,95386.88
2018-09-21T13:23:36.696Z,95393.05
2018-09-21T13:26:04.813Z,95386.34
2018-09-21T13:28:32.866Z,95387.16
2018-09-21T13:31:00.977Z,95380.98
2018-09-21T13:33:29.386Z,95364.56
2018-09-21T13:35:57.840Z,95384.48
2018-09-21T13:38:26.958Z,95379.94
2018-09-21T13:40:55.559Z,95374.58
2018-09-21T13:43:23.552Z,95376.73
2018-09-21T13:45:51.551Z,95374.89
2018-09-21T13:48:19.638Z,95378.39
2018-09-21T13:50:48.445Z,95377.58
2018-09-21T13:53:16.427Z,95377.25
2018-09-21T13:55:44.518Z,95382.41
2018-09-21T13:58:12.921Z,95386.44
2018-09-21T14:00:40.997Z,95382.41
2018-09-21T14:03:09.839Z,95381.07
2018-09-21T14:05:38.007Z,95384.28
2018-09-21T14:08:06.007Z,95376.52
2018-09-21T14:10:33.976Z,95381.07
2018-09-21T14:13:02.176Z,95383.23
2018-09-21T14:15:30.452Z,95384.56
2018-09-21T14:17:58.657Z,95386.20
2018-09-21T14:20:26.733Z,95382.17
2018-09-21T14:22:54.833Z,95380.02
2018-09-21T14:25:23.122Z,95383.23
2018-09-21T14:27:51.253Z,95380.84
2018-09-21T14:30:19.628Z,95376.52
2018-09-21T14:32:47.810Z,95377.86
2018-09-21T14:35:15.892Z,95380.55
2018-09-21T14:37:43.890Z,95381.59
2018-09-21T14:40:13.074Z,95384.77
2018-09-21T14:42:41.139Z,95387.45
2018-09-21T14:45:09.181Z,95384.28
2018-09-21T14:47:37.285Z,95377.86
2018-09-21T14:50:05.350Z,95383.95
2018-09-21T14:52:33.443Z,95383.75
2018-09-21T14:55:01.741Z,95379.41
2018-09-21T14:57:31.830Z,95381.59
2018-09-21T15:00:00.073Z,95374.28
2018-09-21T15:02:28.056Z,95379.03
2018-09-21T15:04:56.059Z,95380.70
2018-09-21T15:07:24.139Z,95380.91
2018-09-21T15:09:52.539Z,95358.22
2018-09-21T15:12:20.616Z,95388.05
2018-09-21T15:14:48.598Z,95381.11
2018-09-21T15:17:16.903Z,95382.98
2018-09-21T15:19:44.891Z,95385.13
2018-09-21T15:22:13.025Z,95383.58
2018-09-21T15:24:40.962Z,95380.09
2018-09-21T15:27:10.026Z,95379.77
2018-09-21T15:29:38.136Z,95382.69
2018-09-21T15:32:06.246Z,95378.38
2018-09-21T15:34:35.043Z,95379.92
2018-09-21T15:37:03.155Z,95376.19
2018-09-21T15:39:35.212Z,95380.21
2018-09-21T15:42:03.200Z,95373.38
2018-09-21T15:44:31.223Z,95375.00
2018-09-21T15:46:59.280Z,95375.73
2018-09-21T15:49:27.420Z,95377.59
2018-09-21T15:51:55.426Z,95371.19
2018-09-21T15:54:23.675Z,95367.92
2018-09-21T15:56:53.295Z,95371.05
2018-09-21T15:59:21.290Z,95365.89
2018-09-21T16:01:49.251Z,95373.03
2018-09-21T16:04:17.225Z,95367.59
2018-09-21T16:06:45.955Z,95368.31
2018-09-21T16:09:14.066Z,95339.48
2018-09-21T16:11:42.137Z,95370.91
2018-09-21T16:14:13.283Z,95377.13
2018-09-21T16:16:41.282Z,95383.30
2018-09-21T16:19:09.270Z,95382.41
2018-09-21T16:21:37.257Z,95379.82
2018-09-21T16:24:05.230Z,95373.12
2018-09-21T16:26:34.009Z,95374.55
2018-09-21T16:29:01.948Z,95376.51
2018-09-21T16:31:30.024Z,95372.47
2018-09-21T16:33:58.669Z,95379.77
2018-09-21T16:36:26.802Z,95376.74
2018-09-21T16:38:54.925Z,95378.11
2018-09-21T16:41:23.817Z,95376.05
2018-09-21T16:43:52.012Z,95377.13
2018-09-21T16:46:20.100Z,95375.44
2018-09-21T16:48:48.128Z,95385.66
2018-09-21T16:51:16.337Z,95374.87
2018-09-21T16:53:44.362Z,95394.28
2018-09-21T16:56:13.111Z,95347.27
2018-09-21T16:58:41.176Z,95386.59
2018-09-21T17:01:09.140Z,95376.02
2018-09-21T17:03:37.585Z,95388.14
2018-09-21T17:19:05.977Z,95392.61
2018-09-21T17:21:36.012Z,95392.81
2018-09-21T17:24:04.459Z,95402.00
2018-09-21T17:26:32.709Z,95396.31
2018-09-21T17:29:00.799Z,95400.42
2018-09-21T17:31:28.898Z,95401.03
2018-09-21T17:33:57.118Z,95399.98
2018-09-21T17:36:25.232Z,95408.02
2018-09-21T17:38:53.259Z,95409.64
2018-09-21T17:41:21.241Z,95412.25
2018-09-21T17:43:49.342Z,95418.45
2018-09-21T17:46:17.676Z,95418.59
2018-09-21T17:48:45.725Z,95421.52
2018-09-21T17:51:13.705Z,95419.08
2018-09-21T17:53:41.897Z,95418.02
2018-09-21T17:56:09.913Z,95423.23
2018-09-21T17:58:38.197Z,95425.47
2018-09-21T18:01:06.431Z,95419.37
2018-09-21T18:03:34.580Z,95419.37
2018-09-21T18:06:02.983Z,95418.84
2018-09-21T18:08:31.153Z,95426.61
2018-09-21T18:11:00.845Z,95424.53
2018-09-21T18:13:28.984Z,95430.71
2018-09-21T18:15:57.309Z,95431.23
2018-09-21T18:18:25.362Z,95424.66
2018-09-21T18:20:53.496Z,95424.45
2018-09-21T18:23:21.643Z,95425.02
2018-09-21T18:25:49.800Z,95429.49
2018-09-21T18:28:18.058Z,95432.66
2018-09-21T18:30:46.204Z,95430.71
2018-09-21T18:33:14.412Z,95432.17
2018-09-21T18:35:42.840Z,95440.31
2018-09-21T18:38:10.792Z,95439.05
2018-09-21T18:40:38.980Z,95441.44
2018-09-21T18:43:07.075Z,95435.70
2018-09-21T18:45:35.266Z,95439.66
2018-09-21T18:48:03.355Z,95431.98
2018-09-21T18:50:33.351Z,95433.40
2018-09-21T18:53:01.583Z,95433.84
2018-09-21T18:55:29.803Z,95438.92
2018-09-21T18:57:58.700Z,95435.19
2018-09-21T19:00:26.870Z,95440.84
2018-09-21T19:02:54.954Z,95443.53
2018-09-21T19:05:23.363Z,95448.76
2018-09-21T19:07:51.642Z,95442.05
2018-09-21T19:10:19.731Z,95439.38
2018-09-21T19:12:48.433Z,95444.73
2018-09-21T19:15:16.326Z,95450.02
2018-09-21T19:17:44.414Z,95450.59
2018-09-21T19:20:12.502Z,95447.42
2018-09-21T19:22:41.017Z,95450.84
2018-09-21T19:25:09.081Z,95415.16
2018-09-21T19:27:37.307Z,95449.49
2018-09-21T19:30:05.374Z,95447.55
2018-09-21T19:32:33.357Z,95447.98
2018-09-21T19:35:02.258Z,95442.83
2018-09-21T19:37:30.361Z,95451.11
2018-09-21T19:39:58.554Z,95445.51
2018-09-21T19:42:26.668Z,95443.96
2018-09-21T19:44:54.822Z,95445.09
2018-09-21T19:47:22.920Z,95439.94
2018-09-21T19:49:51.034Z,95444.17
2018-09-21T19:52:20.224Z,95446.36
2018-09-21T19:54:48.354Z,95451.20
2018-09-21T19:57:16.271Z,95426.27
2018-09-21T19:59:44.320Z,95459.45
2018-09-21T20:02:12.270Z,95454.09
2018-09-21T20:04:40.427Z,95450.06
2018-09-21T20:07:09.831Z,95446.80
2018-09-21T20:09:37.881Z,95445.75
2018-09-21T20:12:05.940Z,95445.14
2018-09-21T20:14:34.081Z,95444.23
2018-09-21T20:17:02.198Z,95447.66
2018-09-21T20:19:30.224Z,95448.27
2018-09-21T20:21:58.308Z,95447.24
2018-09-21T20:24:26.484Z,95451.47
2018-09-21T20:26:54.803Z,95455.94
2018-09-21T20:29:23.213Z,95451.83
2018-09-21T20:31:56.304Z,95439.51
2018-09-21T20:34:24.926Z,95456.67
2018-09-21T20:36:52.947Z,95454.14
2018-09-21T20:39:21.196Z,95455.86
2018-09-21T20:41:49.179Z,95456.98
2018-09-21T20:44:17.249Z,95459.59
2018-09-21T20:46:47.417Z,95453.91
2018-09-21T20:49:15.511Z,95454.14
2018-09-21T20:51:44.144Z,95453.09
2018-09-21T20:54:12.195Z,95452.72
2018-09-21T20:56:40.294Z,95457.84
2018-09-21T20:59:08.391Z,95458.89
2018-09-21T21:01:36.474Z,95459.09
2018-09-21T21:04:04.488Z,95462.83
2018-09-21T21:06:32.634Z,95456.25
2018-09-21T21:09:00.731Z,95452.48
2018-09-21T21:11:30.348Z,95450.95
2018-09-21T21:13:58.333Z,95455.59
2018-09-21T21:16:26.430Z,95462.58
2018-09-21T21:18:54.490Z,95435.95
2018-09-21T21:21:22.617Z,95453.16
2018-09-21T21:23:51.430Z,95462.16
2018-09-21T21:26:19.506Z,95458.29
2018-09-21T21:28:47.598Z,95460.56
2018-09-21T21:31:17.214Z,95462.28
2018-09-21T21:33:45.414Z,95456.69
2018-09-21T21:36:17.393Z,95450.95
2018-09-21T21:38:45.413Z,95460.16
2018-09-21T21:41:13.302Z,95456.57
2018-09-21T21:43:41.250Z,95451.94
2018-09-21T21:46:09.323Z,95448.59
2018-09-21T21:48:37.422Z,95458.61
2018-09-21T21:51:05.600Z,95459.56
2018-09-21T21:53:33.621Z,95449.77
2018-09-21T21:56:01.682Z,95459.29
2018-09-21T21:58:29.789Z,95460.63
2018-09-21T22:01:03.131Z,95463.31
2018-09-21T22:03:31.294Z,95455.09
2018-09-21T22:06:00.195Z,95455.66
2018-09-21T22:08:28.181Z,95451.12
2018-09-21T22:10:56.275Z,95451.73
2018-09-21T22:13:29.582Z,95454.09
2018-09-21T22:15:57.771Z,95442.16
2018-09-21T22:18:25.850Z,95452.08
2018-09-21T22:20:53.947Z,95453.48
2018-09-21T22:23:21.959Z,95447.02
2018-09-21T22:25:50.013Z,95456.89
2018-09-21T22:28:18.006Z,95450.20
2018-09-21T22:30:46.033Z,95448.36
2018-09-21T22:33:14.077Z,95450.20
2018-09-21T22:35:42.290Z,95453.73
2018-09-21T22:38:10.355Z,95453.58
2018-09-21T22:40:38.571Z,95461.62
2018-09-21T22:43:06.637Z,95455.11
2018-09-21T22:45:34.737Z,95456.02
2018-09-21T22:48:02.838Z,95455.31
2018-09-21T22:50:30.921Z,95453.39
2018-09-21T22:53:02.385Z,95451.14
2018-09-21T22:55:30.473Z,95451.14
2018-09-21T22:57:58.453Z,95452.05
2018-09-21T23:00:26.553Z,95443.30
2018-09-21T23:02:54.842Z,95445.50
2018-09-21T23:05:22.960Z,95449.70
2018-09-21T23:07:50.913Z,95443.34
2018-09-21T23:10:19.361Z,95448.27
2018-09-21T23:12:47.410Z,95442.72
2018-09-21T23:15:15.493Z,95442.43
2018-09-21T23:17:43.677Z,95451.58
2018-09-21T23:20:11.769Z,95454.58
2018-09-21T23:22:40.889Z,95450.27
2018-09-21T23:25:09.003Z,95450.56
2018-09-21T23:27:37.021Z,95446.69
2018-09-21T23:30:04.942Z,95446.78
2018-09-21T23:32:33.031Z,95450.99
2018-09-21T23:35:04.931Z,95454.09
2018-09-21T23:37:33.105Z,95445.45
2018-09-21T23:40:01.201Z,95446.69
2018-09-21T23:42:29.342Z,95456.58
2018-09-21T23:44:57.477Z,95451.41
2018-09-21T23:47:26.435Z,95456.83
2018-09-21T23:49:54.582Z,95452.39
2018-09-21T23:52:22.685Z,95457.65
2018-09-21T23:54:50.748Z,95460.78
2018-09-21T23:57:18.832Z,95454.81
2018-09-21T23:59:47.184Z,95453.38
